Time;durP1;ratioP1;P1;durP2;ratioP2;P2;SDS_P1;SDS_P2;PMS_P1;PMS_P2;Temp;Humidity;BMP_temperature;BMP_pressure;BME280_temperature;BME280_humidity;BME280_pressure;Samples;Min_cycle;Max_cycle;Signal;HPM_P1;HPM_P2
2022/06/17 00:00:50;;;;;;;7.899999;6;;;;;;;15.35;61.93066;95844.11;;;;
2022/06/17 00:01:54;;;;;;;7.899999;6;;;;;;;15.35;61.93066;95844.11;;;;
2022/06/17 00:02:55;;;;;;;7.899999;6;;;;;;;15.35;61.93066;95844.11;;;;
2022/06/17 00:03:55;;;;;;;7.899999;6;;;;;;;15.35;61.93066;95844.11;;;;
2022/06/17 00:04:57;;;;;;;7.899999;6;;;;;;;15.35;61.93066;95844.11;;;;
2022/06/17 00:05:57;;;;;;;7.899999;6;;;;;;;15.35;61.93066;95844.11;;;;
2022/06/17 00:07:02;;;;;;;7.899999;6;;;;;;;15.35;61.93066;95844.11;;;;
2022/06/17 00:08:06;;;;;;;7.899999;6;;;;;;;15.35;61.93066;95844.11;;;;
2022/06/17 00:09:14;;;;;;;7.899999;6;;;;;;;15.35;61.93066;95844.11;;;;
2022/06/17 00:10:19;;;;;;;6.550001;5.849999;;;;;;;15.17;62.29883;95854.41;;;;
2022/06/17 00:11:24;;;;;;;6.550001;5.849999;;;;;;;15.17;62.29883;95854.41;;;;
2022/06/17 00:12:27;;;;;;;6.550001;5.849999;;;;;;;15.17;62.29883;95854.41;;;;
2022/06/17 00:13:27;;;;;;;6.550001;5.849999;;;;;;;15.17;62.29883;95854.41;;;;
2022/06/17 00:14:29;;;;;;;6.550001;5.849999;;;;;;;15.17;62.29883;95854.41;;;;
2022/06/17 00:15:32;;;;;;;6.550001;5.849999;;;;;;;15.17;62.29883;95854.41;;;;
2022/06/17 00:16:33;;;;;;;6.550001;5.849999;;;;;;;15.17;62.29883;95854.41;;;;
2022/06/17 00:17:33;;;;;;;6.550001;5.849999;;;;;;;15.17;62.29883;95854.41;;;;
2022/06/17 00:18:34;;;;;;;6.550001;5.849999;;;;;;;15.17;62.29883;95854.41;;;;
2022/06/17 00:19:34;;;;;;;6.550001;5.849999;;;;;;;15.17;62.29883;95854.41;;;;
2022/06/17 00:20:35;;;;;;;7.299999;6.45;;;;;;;15.05;62.71777;95842.38;;;;
2022/06/17 00:21:35;;;;;;;7.299999;6.45;;;;;;;15.05;62.71777;95842.38;;;;
2022/06/17 00:22:38;;;;;;;7.299999;6.45;;;;;;;15.05;62.71777;95842.38;;;;
2022/06/17 00:23:41;;;;;;;7.299999;6.45;;;;;;;15.05;62.71777;95842.38;;;;
2022/06/17 00:24:42;;;;;;;7.299999;6.45;;;;;;;15.05;62.71777;95842.38;;;;
2022/06/17 00:25:43;;;;;;;7.299999;6.45;;;;;;;15.05;62.71777;95842.38;;;;
2022/06/17 00:26:45;;;;;;;7.299999;6.45;;;;;;;15.05;62.71777;95842.38;;;;
2022/06/17 00:27:46;;;;;;;7.299999;6.45;;;;;;;15.05;62.71777;95842.38;;;;
2022/06/17 00:28:48;;;;;;;7.299999;6.45;;;;;;;15.05;62.71777;95842.38;;;;
2022/06/17 00:29:49;;;;;;;7.299999;6.45;;;;;;;15.05;62.71777;95842.38;;;;
2022/06/17 00:30:49;;;;;;;7.299999;6.45;;;;;;;15.05;62.71777;95842.38;;;;
2022/06/17 00:31:51;;;;;;;8.45;6.45;;;;;;;14.85;63.18066;95825.43;;;;
2022/06/17 00:32:52;;;;;;;8.45;6.45;;;;;;;14.85;63.18066;95825.43;;;;
2022/06/17 00:33:53;;;;;;;8.45;6.45;;;;;;;14.85;63.18066;95825.43;;;;
2022/06/17 00:34:54;;;;;;;8.45;6.45;;;;;;;14.85;63.18066;95825.43;;;;
2022/06/17 00:35:54;;;;;;;8.45;6.45;;;;;;;14.85;63.18066;95825.43;;;;
2022/06/17 00:36:56;;;;;;;8.45;6.45;;;;;;;14.85;63.18066;95825.43;;;;
2022/06/17 00:37:59;;;;;;;8.45;6.45;;;;;;;14.85;63.18066;95825.43;;;;
2022/06/17 00:39:01;;;;;;;8.45;6.45;;;;;;;14.85;63.18066;95825.43;;;;
2022/06/17 00:40:08;;;;;;;8.45;6.45;;;;;;;14.85;63.18066;95825.43;;;;
2022/06/17 00:41:15;;;;;;;8.45;6.45;;;;;;;14.85;63.18066;95825.43;;;;
2022/06/17 00:42:22;;;;;;;7.05;6.3;;;;;;;14.7;63.61621;95835.14;;;;
2022/06/17 00:43:23;;;;;;;7.05;6.3;;;;;;;14.7;63.61621;95835.14;;;;
2022/06/17 00:44:28;;;;;;;7.05;6.3;;;;;;;14.7;63.61621;95835.14;;;;
2022/06/17 00:45:37;;;;;;;7.05;6.3;;;;;;;14.7;63.61621;95835.14;;;;
2022/06/17 00:46:44;;;;;;;7.05;6.3;;;;;;;14.7;63.61621;95835.14;;;;
2022/06/17 00:47:50;;;;;;;7.05;6.3;;;;;;;14.7;63.61621;95835.14;;;;
2022/06/17 00:48:57;;;;;;;7.05;6.3;;;;;;;14.7;63.61621;95835.14;;;;
2022/06/17 00:50:09;;;;;;;7.05;6.3;;;;;;;14.7;63.61621;95835.14;;;;
2022/06/17 00:51:15;;;;;;;7.05;6.3;;;;;;;14.7;63.61621;95835.14;;;;
2022/06/17 00:52:20;;;;;;;7.05;6.3;;;;;;;14.7;63.61621;95835.14;;;;
2022/06/17 00:53:27;;;;;;;7.349999;6.750001;;;;;;;14.5;64.07813;95837.23;;;;
2022/06/17 00:54:34;;;;;;;7.349999;6.750001;;;;;;;14.5;64.07813;95837.23;;;;
2022/06/17 00:55:42;;;;;;;7.349999;6.750001;;;;;;;14.5;64.07813;95837.23;;;;
2022/06/17 00:56:46;;;;;;;7.349999;6.750001;;;;;;;14.5;64.07813;95837.23;;;;
2022/06/17 00:57:47;;;;;;;7.349999;6.750001;;;;;;;14.5;64.07813;95837.23;;;;
2022/06/17 00:58:48;;;;;;;7.349999;6.750001;;;;;;;14.5;64.07813;95837.23;;;;
2022/06/17 01:00:01;;;;;;;7.349999;6.750001;;;;;;;14.5;64.07813;95837.23;;;;
2022/06/17 01:01:12;;;;;;;7.349999;6.750001;;;;;;;14.5;64.07813;95837.23;;;;
2022/06/17 01:02:13;;;;;;;7.349999;6.750001;;;;;;;14.5;64.07813;95837.23;;;;
2022/06/17 01:03:14;;;;;;;7.349999;6.65;;;;;;;14.38;64.49609;95842.99;;;;
2022/06/17 01:04:19;;;;;;;7.349999;6.65;;;;;;;14.38;64.49609;95842.99;;;;
2022/06/17 01:05:21;;;;;;;7.349999;6.65;;;;;;;14.38;64.49609;95842.99;;;;
2022/06/17 01:06:25;;;;;;;7.349999;6.65;;;;;;;14.38;64.49609;95842.99;;;;
2022/06/17 01:07:32;;;;;;;7.349999;6.65;;;;;;;14.38;64.49609;95842.99;;;;
2022/06/17 01:13:54;;;;;;;9.65;6.85;;;;;;;14.21;64.94922;95847.25;;;;
2022/06/17 01:14:55;;;;;;;9.65;6.85;;;;;;;14.21;64.94922;95847.25;;;;
2022/06/17 01:15:57;;;;;;;9.65;6.85;;;;;;;14.21;64.94922;95847.25;;;;
2022/06/17 01:16:58;;;;;;;9.65;6.85;;;;;;;14.21;64.94922;95847.25;;;;
2022/06/17 01:17:59;;;;;;;9.65;6.85;;;;;;;14.21;64.94922;95847.25;;;;
2022/06/17 01:19:00;;;;;;;9.65;6.85;;;;;;;14.21;64.94922;95847.25;;;;
2022/06/17 01:20:09;;;;;;;9.65;6.85;;;;;;;14.21;64.94922;95847.25;;;;
2022/06/17 01:21:12;;;;;;;9.65;6.85;;;;;;;14.21;64.94922;95847.25;;;;
2022/06/17 01:22:23;;;;;;;9.65;6.85;;;;;;;14.21;64.94922;95847.25;;;;
2022/06/17 01:23:35;;;;;;;9.65;6.85;;;;;;;14.21;64.94922;95847.25;;;;
2022/06/17 01:24:36;;;;;;;7.249999;6.55;;;;;;;14.13;65.38281;95865.33;;;;
2022/06/17 01:25:37;;;;;;;7.249999;6.55;;;;;;;14.13;65.38281;95865.33;;;;
2022/06/17 01:26:41;;;;;;;7.249999;6.55;;;;;;;14.13;65.38281;95865.33;;;;
2022/06/17 01:27:41;;;;;;;7.249999;6.55;;;;;;;14.13;65.38281;95865.33;;;;
2022/06/17 01:28:44;;;;;;;7.249999;6.55;;;;;;;14.13;65.38281;95865.33;;;;
2022/06/17 01:29:45;;;;;;;7.249999;6.55;;;;;;;14.13;65.38281;95865.33;;;;
2022/06/17 01:30:46;;;;;;;7.249999;6.55;;;;;;;14.13;65.38281;95865.33;;;;
2022/06/17 01:31:50;;;;;;;7.249999;6.55;;;;;;;14.13;65.38281;95865.33;;;;
2022/06/17 01:32:54;;;;;;;7.249999;6.55;;;;;;;14.13;65.38281;95865.33;;;;
2022/06/17 01:33:58;;;;;;;7.249999;6.55;;;;;;;14.13;65.38281;95865.33;;;;
2022/06/17 01:35:00;;;;;;;7.249999;6.55;;;;;;;14.13;65.38281;95865.33;;;;
2022/06/17 01:36:01;;;;;;;6.950001;6.249999;;;;;;;13.96;65.7373;95902.28;;;;
2022/06/17 01:37:04;;;;;;;6.950001;6.249999;;;;;;;13.96;65.7373;95902.28;;;;
2022/06/17 01:38:06;;;;;;;6.950001;6.249999;;;;;;;13.96;65.7373;95902.28;;;;
2022/06/17 01:39:08;;;;;;;6.950001;6.249999;;;;;;;13.96;65.7373;95902.28;;;;
2022/06/17 01:40:09;;;;;;;6.950001;6.249999;;;;;;;13.96;65.7373;95902.28;;;;
2022/06/17 01:41:10;;;;;;;6.950001;6.249999;;;;;;;13.96;65.7373;95902.28;;;;
2022/06/17 01:42:12;;;;;;;6.950001;6.249999;;;;;;;13.96;65.7373;95902.28;;;;
2022/06/17 01:43:12;;;;;;;6.950001;6.249999;;;;;;;13.96;65.7373;95902.28;;;;
2022/06/17 01:44:17;;;;;;;6.950001;6.249999;;;;;;;13.96;65.7373;95902.28;;;;
2022/06/17 01:45:22;;;;;;;6.950001;6.249999;;;;;;;13.96;65.7373;95902.28;;;;
2022/06/17 01:46:22;;;;;;;7.25;6.550001;;;;;;;13.88;66.04199;95883.95;;;;
2022/06/17 01:47:28;;;;;;;7.25;6.550001;;;;;;;13.88;66.04199;95883.95;;;;
2022/06/17 01:48:32;;;;;;;7.25;6.550001;;;;;;;13.88;66.04199;95883.95;;;;
2022/06/17 01:49:38;;;;;;;7.25;6.550001;;;;;;;13.88;66.04199;95883.95;;;;
2022/06/17 01:50:43;;;;;;;7.25;6.550001;;;;;;;13.88;66.04199;95883.95;;;;
2022/06/17 01:51:47;;;;;;;7.25;6.550001;;;;;;;13.88;66.04199;95883.95;;;;
2022/06/17 01:52:52;;;;;;;7.25;6.550001;;;;;;;13.88;66.04199;95883.95;;;;
2022/06/17 01:53:58;;;;;;;7.25;6.550001;;;;;;;13.88;66.04199;95883.95;;;;
2022/06/17 01:55:02;;;;;;;7.25;6.550001;;;;;;;13.88;66.04199;95883.95;;;;
2022/06/17 01:56:09;;;;;;;7.25;6.550001;;;;;;;13.88;66.04199;95883.95;;;;
2022/06/17 01:57:14;;;;;;;7.6;6.9;;;;;;;13.72;66.43066;95897.36;;;;
2022/06/17 01:58:17;;;;;;;7.6;6.9;;;;;;;13.72;66.43066;95897.36;;;;
2022/06/17 01:59:23;;;;;;;7.6;6.9;;;;;;;13.72;66.43066;95897.36;;;;
2022/06/17 02:00:29;;;;;;;7.6;6.9;;;;;;;13.72;66.43066;95897.36;;;;
2022/06/17 02:01:30;;;;;;;7.6;6.9;;;;;;;13.72;66.43066;95897.36;;;;
2022/06/17 02:02:34;;;;;;;7.6;6.9;;;;;;;13.72;66.43066;95897.36;;;;
2022/06/17 02:03:36;;;;;;;7.6;6.9;;;;;;;13.72;66.43066;95897.36;;;;
2022/06/17 02:04:41;;;;;;;7.6;6.9;;;;;;;13.72;66.43066;95897.36;;;;
2022/06/17 02:05:48;;;;;;;7.6;6.9;;;;;;;13.72;66.43066;95897.36;;;;
2022/06/17 02:06:52;;;;;;;7.6;6.9;;;;;;;13.72;66.43066;95897.36;;;;
2022/06/17 02:07:58;;;;;;;7.799999;6.900001;;;;;;;13.62;66.81738;95885.06;;;;
2022/06/17 02:09:01;;;;;;;7.799999;6.900001;;;;;;;13.62;66.81738;95885.06;;;;
2022/06/17 02:10:02;;;;;;;7.799999;6.900001;;;;;;;13.62;66.81738;95885.06;;;;
2022/06/17 02:11:05;;;;;;;7.799999;6.900001;;;;;;;13.62;66.81738;95885.06;;;;
2022/06/17 02:12:07;;;;;;;7.799999;6.900001;;;;;;;13.62;66.81738;95885.06;;;;
2022/06/17 02:13:09;;;;;;;7.799999;6.900001;;;;;;;13.62;66.81738;95885.06;;;;
2022/06/17 02:14:11;;;;;;;7.799999;6.900001;;;;;;;13.62;66.81738;95885.06;;;;
2022/06/17 02:15:12;;;;;;;7.799999;6.900001;;;;;;;13.62;66.81738;95885.06;;;;
2022/06/17 02:16:14;;;;;;;7.799999;6.900001;;;;;;;13.62;66.81738;95885.06;;;;
2022/06/17 02:17:16;;;;;;;7.799999;6.900001;;;;;;;13.62;66.81738;95885.06;;;;
2022/06/17 02:18:17;;;;;;;7.799999;6.900001;;;;;;;13.62;66.81738;95885.06;;;;
2022/06/17 02:19:19;;;;;;;7.799999;6.900001;;;;;;;13.62;66.81738;95885.06;;;;
2022/06/17 02:20:24;;;;;;;7.799999;6.900001;;;;;;;13.62;66.81738;95885.06;;;;
2022/06/17 02:21:25;;;;;;;7.799999;6.900001;;;;;;;13.62;66.81738;95885.06;;;;
2022/06/17 02:22:32;;;;;;;7.799999;6.900001;;;;;;;13.62;66.81738;95885.06;;;;
2022/06/17 02:23:36;;;;;;;7.799999;6.900001;;;;;;;13.62;66.81738;95885.06;;;;
2022/06/17 02:24:38;;;;;;;7.799999;6.900001;;;;;;;13.62;66.81738;95885.06;;;;
2022/06/17 02:25:40;;;;;;;7.799999;6.900001;;;;;;;13.62;66.81738;95885.06;;;;
2022/06/17 02:26:46;;;;;;;7.799999;6.900001;;;;;;;13.62;66.81738;95885.06;;;;
2022/06/17 02:27:48;;;;;;;7.799999;6.900001;;;;;;;13.62;66.81738;95885.06;;;;
2022/06/17 02:28:53;;;;;;;7.55;6.799999;;;;;;;13.38;67.51953;95864.51;;;;
2022/06/17 02:29:54;;;;;;;7.55;6.799999;;;;;;;13.38;67.51953;95864.51;;;;
2022/06/17 02:30:57;;;;;;;7.55;6.799999;;;;;;;13.38;67.51953;95864.51;;;;
2022/06/17 02:31:59;;;;;;;7.55;6.799999;;;;;;;13.38;67.51953;95864.51;;;;
2022/06/17 02:33:02;;;;;;;7.55;6.799999;;;;;;;13.38;67.51953;95864.51;;;;
2022/06/17 02:34:05;;;;;;;7.55;6.799999;;;;;;;13.38;67.51953;95864.51;;;;
2022/06/17 02:35:10;;;;;;;7.55;6.799999;;;;;;;13.38;67.51953;95864.51;;;;
2022/06/17 02:36:18;;;;;;;7.55;6.799999;;;;;;;13.38;67.51953;95864.51;;;;
2022/06/17 02:37:26;;;;;;;7.55;6.799999;;;;;;;13.38;67.51953;95864.51;;;;
2022/06/17 02:38:30;;;;;;;7.55;6.799999;;;;;;;13.38;67.51953;95864.51;;;;
2022/06/17 02:39:33;;;;;;;8.450001;7.199999;;;;;;;13.24;67.79004;95850.21;;;;
2022/06/17 02:40:38;;;;;;;8.450001;7.199999;;;;;;;13.24;67.79004;95850.21;;;;
2022/06/17 02:41:42;;;;;;;8.450001;7.199999;;;;;;;13.24;67.79004;95850.21;;;;
2022/06/17 02:42:43;;;;;;;8.450001;7.199999;;;;;;;13.24;67.79004;95850.21;;;;
2022/06/17 02:43:44;;;;;;;8.450001;7.199999;;;;;;;13.24;67.79004;95850.21;;;;
2022/06/17 02:44:48;;;;;;;8.450001;7.199999;;;;;;;13.24;67.79004;95850.21;;;;
2022/06/17 02:45:53;;;;;;;8.450001;7.199999;;;;;;;13.24;67.79004;95850.21;;;;
2022/06/17 02:47:00;;;;;;;8.450001;7.199999;;;;;;;13.24;67.79004;95850.21;;;;
2022/06/17 02:48:04;;;;;;;8.450001;7.199999;;;;;;;13.24;67.79004;95850.21;;;;
2022/06/17 02:49:17;;;;;;;8.450001;7.199999;;;;;;;13.24;67.79004;95850.21;;;;
2022/06/17 02:50:21;;;;;;;7.5;6.8;;;;;;;13.16;68.0918;95853.13;;;;
2022/06/17 02:51:25;;;;;;;7.5;6.8;;;;;;;13.16;68.0918;95853.13;;;;
2022/06/17 02:52:28;;;;;;;7.5;6.8;;;;;;;13.16;68.0918;95853.13;;;;
2022/06/17 02:53:34;;;;;;;7.5;6.8;;;;;;;13.16;68.0918;95853.13;;;;
2022/06/17 02:54:38;;;;;;;7.5;6.8;;;;;;;13.16;68.0918;95853.13;;;;
2022/06/17 02:55:41;;;;;;;7.5;6.8;;;;;;;13.16;68.0918;95853.13;;;;
2022/06/17 02:56:43;;;;;;;7.5;6.8;;;;;;;13.16;68.0918;95853.13;;;;
2022/06/17 02:57:49;;;;;;;7.5;6.8;;;;;;;13.16;68.0918;95853.13;;;;
2022/06/17 02:58:52;;;;;;;7.5;6.8;;;;;;;13.16;68.0918;95853.13;;;;
2022/06/17 03:00:02;;;;;;;7.5;6.8;;;;;;;13.16;68.0918;95853.13;;;;
2022/06/17 03:01:10;;;;;;;7.4;6.6;;;;;;;12.99;68.32617;95839.5;;;;
2022/06/17 03:02:16;;;;;;;7.4;6.6;;;;;;;12.99;68.32617;95839.5;;;;
2022/06/17 03:03:22;;;;;;;7.4;6.6;;;;;;;12.99;68.32617;95839.5;;;;
2022/06/17 03:04:25;;;;;;;7.4;6.6;;;;;;;12.99;68.32617;95839.5;;;;
2022/06/17 03:05:29;;;;;;;7.4;6.6;;;;;;;12.99;68.32617;95839.5;;;;
2022/06/17 03:06:34;;;;;;;7.4;6.6;;;;;;;12.99;68.32617;95839.5;;;;
2022/06/17 03:07:37;;;;;;;7.4;6.6;;;;;;;12.99;68.32617;95839.5;;;;
2022/06/17 03:08:39;;;;;;;7.4;6.6;;;;;;;12.99;68.32617;95839.5;;;;
2022/06/17 03:09:43;;;;;;;7.4;6.6;;;;;;;12.99;68.32617;95839.5;;;;
2022/06/17 03:10:44;;;;;;;7.4;6.6;;;;;;;12.99;68.32617;95839.5;;;;
2022/06/17 03:11:45;;;;;;;7.55;6.849999;;;;;;;12.9;68.60547;95828.85;;;;
2022/06/17 03:12:50;;;;;;;7.55;6.849999;;;;;;;12.9;68.60547;95828.85;;;;
2022/06/17 03:13:56;;;;;;;7.55;6.849999;;;;;;;12.9;68.60547;95828.85;;;;
2022/06/17 03:15:03;;;;;;;7.55;6.849999;;;;;;;12.9;68.60547;95828.85;;;;
2022/06/17 03:16:07;;;;;;;7.55;6.849999;;;;;;;12.9;68.60547;95828.85;;;;
2022/06/17 03:17:12;;;;;;;7.55;6.849999;;;;;;;12.9;68.60547;95828.85;;;;
2022/06/17 03:18:17;;;;;;;7.55;6.849999;;;;;;;12.9;68.60547;95828.85;;;;
2022/06/17 03:19:19;;;;;;;7.55;6.849999;;;;;;;12.9;68.60547;95828.85;;;;
2022/06/17 03:20:22;;;;;;;7.55;6.849999;;;;;;;12.9;68.60547;95828.85;;;;
2022/06/17 03:21:26;;;;;;;7.55;6.849999;;;;;;;12.9;68.60547;95828.85;;;;
2022/06/17 03:22:26;;;;;;;7.599999;6.849999;;;;;;;12.77;68.85547;95837.25;;;;
2022/06/17 03:23:28;;;;;;;7.599999;6.849999;;;;;;;12.77;68.85547;95837.25;;;;
2022/06/17 03:24:33;;;;;;;7.599999;6.849999;;;;;;;12.77;68.85547;95837.25;;;;
2022/06/17 03:25:43;;;;;;;7.599999;6.849999;;;;;;;12.77;68.85547;95837.25;;;;
2022/06/17 03:26:47;;;;;;;7.599999;6.849999;;;;;;;12.77;68.85547;95837.25;;;;
2022/06/17 03:27:53;;;;;;;7.599999;6.849999;;;;;;;12.77;68.85547;95837.25;;;;
2022/06/17 03:28:56;;;;;;;7.599999;6.849999;;;;;;;12.77;68.85547;95837.25;;;;
2022/06/17 03:30:01;;;;;;;7.599999;6.849999;;;;;;;12.77;68.85547;95837.25;;;;
2022/06/17 03:31:03;;;;;;;7.599999;6.849999;;;;;;;12.77;68.85547;95837.25;;;;
2022/06/17 03:32:07;;;;;;;7.599999;6.849999;;;;;;;12.77;68.85547;95837.25;;;;
2022/06/17 03:33:14;;;;;;;7.75;6.95;;;;;;;12.73;69.01074;95858.7;;;;
2022/06/17 03:34:20;;;;;;;7.75;6.95;;;;;;;12.73;69.01074;95858.7;;;;
2022/06/17 03:35:24;;;;;;;7.75;6.95;;;;;;;12.73;69.01074;95858.7;;;;
2022/06/17 03:36:27;;;;;;;7.75;6.95;;;;;;;12.73;69.01074;95858.7;;;;
2022/06/17 03:37:33;;;;;;;7.75;6.95;;;;;;;12.73;69.01074;95858.7;;;;
2022/06/17 03:38:39;;;;;;;7.75;6.95;;;;;;;12.73;69.01074;95858.7;;;;
2022/06/17 03:39:45;;;;;;;7.75;6.95;;;;;;;12.73;69.01074;95858.7;;;;
2022/06/17 03:40:50;;;;;;;7.75;6.95;;;;;;;12.73;69.01074;95858.7;;;;
2022/06/17 03:41:54;;;;;;;7.75;6.95;;;;;;;12.73;69.01074;95858.7;;;;
2022/06/17 03:43:00;;;;;;;7.75;6.95;;;;;;;12.73;69.01074;95858.7;;;;
2022/06/17 03:44:05;;;;;;;7.950001;7.100001;;;;;;;12.64;69.07324;95865.2;;;;
2022/06/17 03:45:10;;;;;;;7.950001;7.100001;;;;;;;12.64;69.07324;95865.2;;;;
2022/06/17 03:46:15;;;;;;;7.950001;7.100001;;;;;;;12.64;69.07324;95865.2;;;;
2022/06/17 03:47:19;;;;;;;7.950001;7.100001;;;;;;;12.64;69.07324;95865.2;;;;
2022/06/17 03:48:25;;;;;;;7.950001;7.100001;;;;;;;12.64;69.07324;95865.2;;;;
2022/06/17 03:49:34;;;;;;;7.950001;7.100001;;;;;;;12.64;69.07324;95865.2;;;;
2022/06/17 03:50:41;;;;;;;7.950001;7.100001;;;;;;;12.64;69.07324;95865.2;;;;
2022/06/17 03:51:44;;;;;;;7.950001;7.100001;;;;;;;12.64;69.07324;95865.2;;;;
2022/06/17 03:52:48;;;;;;;7.950001;7.100001;;;;;;;12.64;69.07324;95865.2;;;;
2022/06/17 03:53:54;;;;;;;8.15;7.450001;;;;;;;12.66;69.29297;95885.8;;;;
2022/06/17 03:54:55;;;;;;;8.15;7.450001;;;;;;;12.66;69.29297;95885.8;;;;
2022/06/17 03:55:56;;;;;;;8.15;7.450001;;;;;;;12.66;69.29297;95885.8;;;;
2022/06/17 03:57:01;;;;;;;8.15;7.450001;;;;;;;12.66;69.29297;95885.8;;;;
2022/06/17 03:58:08;;;;;;;8.15;7.450001;;;;;;;12.66;69.29297;95885.8;;;;
2022/06/17 03:59:15;;;;;;;8.15;7.450001;;;;;;;12.66;69.29297;95885.8;;;;
2022/06/17 04:00:19;;;;;;;8.15;7.450001;;;;;;;12.66;69.29297;95885.8;;;;
2022/06/17 04:01:27;;;;;;;8.15;7.450001;;;;;;;12.66;69.29297;95885.8;;;;
2022/06/17 04:02:34;;;;;;;8.15;7.450001;;;;;;;12.66;69.29297;95885.8;;;;
2022/06/17 04:03:34;;;;;;;8.15;7.450001;;;;;;;12.66;69.29297;95885.8;;;;
2022/06/17 04:04:39;;;;;;;8;7.199999;;;;;;;12.63;69.47266;95909.55;;;;
2022/06/17 04:05:43;;;;;;;8;7.199999;;;;;;;12.63;69.47266;95909.55;;;;
2022/06/17 04:06:50;;;;;;;8;7.199999;;;;;;;12.63;69.47266;95909.55;;;;
2022/06/17 04:07:53;;;;;;;8;7.199999;;;;;;;12.63;69.47266;95909.55;;;;
2022/06/17 04:08:54;;;;;;;8;7.199999;;;;;;;12.63;69.47266;95909.55;;;;
2022/06/17 04:09:56;;;;;;;8;7.199999;;;;;;;12.63;69.47266;95909.55;;;;
2022/06/17 04:10:57;;;;;;;8;7.199999;;;;;;;12.63;69.47266;95909.55;;;;
2022/06/17 04:11:58;;;;;;;8;7.199999;;;;;;;12.63;69.47266;95909.55;;;;
2022/06/17 04:13:01;;;;;;;8;7.199999;;;;;;;12.63;69.47266;95909.55;;;;
2022/06/17 04:14:02;;;;;;;8;7.199999;;;;;;;12.63;69.47266;95909.55;;;;
2022/06/17 04:15:06;;;;;;;8;7.199999;;;;;;;12.63;69.47266;95909.55;;;;
2022/06/17 04:16:14;;;;;;;8.249999;7.349999;;;;;;;12.71;69.64648;95905.75;;;;
2022/06/17 04:17:22;;;;;;;8.249999;7.349999;;;;;;;12.71;69.64648;95905.75;;;;
2022/06/17 04:18:28;;;;;;;8.249999;7.349999;;;;;;;12.71;69.64648;95905.75;;;;
2022/06/17 04:19:33;;;;;;;8.249999;7.349999;;;;;;;12.71;69.64648;95905.75;;;;
2022/06/17 04:20:34;;;;;;;8.249999;7.349999;;;;;;;12.71;69.64648;95905.75;;;;
2022/06/17 04:21:39;;;;;;;8.249999;7.349999;;;;;;;12.71;69.64648;95905.75;;;;
2022/06/17 04:22:40;;;;;;;8.249999;7.349999;;;;;;;12.71;69.64648;95905.75;;;;
2022/06/17 04:23:44;;;;;;;8.249999;7.349999;;;;;;;12.71;69.64648;95905.75;;;;
2022/06/17 04:24:45;;;;;;;8.249999;7.349999;;;;;;;12.71;69.64648;95905.75;;;;
2022/06/17 04:25:52;;;;;;;7.149999;6.550001;;;;;;;12.89;69.80664;95886.5;;;;
2022/06/17 04:26:59;;;;;;;7.149999;6.550001;;;;;;;12.89;69.80664;95886.5;;;;
2022/06/17 04:28:06;;;;;;;7.149999;6.550001;;;;;;;12.89;69.80664;95886.5;;;;
2022/06/17 04:29:11;;;;;;;7.149999;6.550001;;;;;;;12.89;69.80664;95886.5;;;;
2022/06/17 04:30:15;;;;;;;7.149999;6.550001;;;;;;;12.89;69.80664;95886.5;;;;
2022/06/17 04:31:21;;;;;;;7.149999;6.550001;;;;;;;12.89;69.80664;95886.5;;;;
2022/06/17 04:32:24;;;;;;;7.149999;6.550001;;;;;;;12.89;69.80664;95886.5;;;;
2022/06/17 04:33:30;;;;;;;7.149999;6.550001;;;;;;;12.89;69.80664;95886.5;;;;
2022/06/17 04:34:35;;;;;;;7.149999;6.550001;;;;;;;12.89;69.80664;95886.5;;;;
2022/06/17 04:35:35;;;;;;;7.149999;6.550001;;;;;;;12.89;69.80664;95886.5;;;;
2022/06/17 04:36:36;;;;;;;7.95;6.55;;;;;;;13.19;69.64844;95900.35;;;;
2022/06/17 04:37:42;;;;;;;7.95;6.55;;;;;;;13.19;69.64844;95900.35;;;;
2022/06/17 04:38:44;;;;;;;7.95;6.55;;;;;;;13.19;69.64844;95900.35;;;;
2022/06/17 04:39:50;;;;;;;7.95;6.55;;;;;;;13.19;69.64844;95900.35;;;;
2022/06/17 04:40:54;;;;;;;7.95;6.55;;;;;;;13.19;69.64844;95900.35;;;;
2022/06/17 04:41:59;;;;;;;7.95;6.55;;;;;;;13.19;69.64844;95900.35;;;;
2022/06/17 04:43:02;;;;;;;7.95;6.55;;;;;;;13.19;69.64844;95900.35;;;;
2022/06/17 04:44:05;;;;;;;7.95;6.55;;;;;;;13.19;69.64844;95900.35;;;;
2022/06/17 04:45:06;;;;;;;7.95;6.55;;;;;;;13.19;69.64844;95900.35;;;;
2022/06/17 04:46:17;;;;;;;7.95;6.55;;;;;;;13.19;69.64844;95900.35;;;;
2022/06/17 04:47:25;;;;;;;7.25;6.55;;;;;;;13.49;69.3916;95901.5;;;;
2022/06/17 04:48:26;;;;;;;7.25;6.55;;;;;;;13.49;69.3916;95901.5;;;;
2022/06/17 04:49:27;;;;;;;7.25;6.55;;;;;;;13.49;69.3916;95901.5;;;;
2022/06/17 04:50:32;;;;;;;7.25;6.55;;;;;;;13.49;69.3916;95901.5;;;;
2022/06/17 04:51:32;;;;;;;7.25;6.55;;;;;;;13.49;69.3916;95901.5;;;;
2022/06/17 04:52:36;;;;;;;7.25;6.55;;;;;;;13.49;69.3916;95901.5;;;;
2022/06/17 04:53:42;;;;;;;7.25;6.55;;;;;;;13.49;69.3916;95901.5;;;;
2022/06/17 04:54:45;;;;;;;7.25;6.55;;;;;;;13.49;69.3916;95901.5;;;;
2022/06/17 04:55:45;;;;;;;7.25;6.55;;;;;;;13.49;69.3916;95901.5;;;;
2022/06/17 04:56:47;;;;;;;7.25;6.55;;;;;;;13.49;69.3916;95901.5;;;;
2022/06/17 04:57:50;;;;;;;7.25;6.55;;;;;;;13.49;69.3916;95901.5;;;;
2022/06/17 04:58:51;;;;;;;7.5;5.849999;;;;;;;13.92;69.24121;95928.59;;;;
2022/06/17 04:59:51;;;;;;;7.5;5.849999;;;;;;;13.92;69.24121;95928.59;;;;
2022/06/17 05:00:54;;;;;;;7.5;5.849999;;;;;;;13.92;69.24121;95928.59;;;;
2022/06/17 05:01:57;;;;;;;7.5;5.849999;;;;;;;13.92;69.24121;95928.59;;;;
2022/06/17 05:02:58;;;;;;;7.5;5.849999;;;;;;;13.92;69.24121;95928.59;;;;
2022/06/17 05:03:58;;;;;;;7.5;5.849999;;;;;;;13.92;69.24121;95928.59;;;;
2022/06/17 05:05:01;;;;;;;7.5;5.849999;;;;;;;13.92;69.24121;95928.59;;;;
2022/06/17 05:06:05;;;;;;;7.5;5.849999;;;;;;;13.92;69.24121;95928.59;;;;
2022/06/17 05:07:07;;;;;;;7.5;5.849999;;;;;;;13.92;69.24121;95928.59;;;;
2022/06/17 05:08:08;;;;;;;7.5;5.849999;;;;;;;13.92;69.24121;95928.59;;;;
2022/06/17 05:09:14;;;;;;;7.250001;6.3;;;;;;;14.45;68.65137;95936.02;;;;
2022/06/17 05:10:19;;;;;;;7.250001;6.3;;;;;;;14.45;68.65137;95936.02;;;;
2022/06/17 05:11:25;;;;;;;7.250001;6.3;;;;;;;14.45;68.65137;95936.02;;;;
2022/06/17 05:12:31;;;;;;;7.250001;6.3;;;;;;;14.45;68.65137;95936.02;;;;
2022/06/17 05:13:37;;;;;;;7.250001;6.3;;;;;;;14.45;68.65137;95936.02;;;;
2022/06/17 05:14:43;;;;;;;7.250001;6.3;;;;;;;14.45;68.65137;95936.02;;;;
2022/06/17 05:15:50;;;;;;;7.250001;6.3;;;;;;;14.45;68.65137;95936.02;;;;
2022/06/17 05:16:51;;;;;;;7.250001;6.3;;;;;;;14.45;68.65137;95936.02;;;;
2022/06/17 05:17:52;;;;;;;7.250001;6.3;;;;;;;14.45;68.65137;95936.02;;;;
2022/06/17 05:18:52;;;;;;;7.250001;6.3;;;;;;;14.45;68.65137;95936.02;;;;
2022/06/17 05:19:53;;;;;;;6.05;5.400001;;;;;;;15.14;67.99707;95951.93;;;;
2022/06/17 05:20:53;;;;;;;6.05;5.400001;;;;;;;15.14;67.99707;95951.93;;;;
2022/06/17 05:21:54;;;;;;;6.05;5.400001;;;;;;;15.14;67.99707;95951.93;;;;
2022/06/17 05:22:54;;;;;;;6.05;5.400001;;;;;;;15.14;67.99707;95951.93;;;;
2022/06/17 05:23:58;;;;;;;6.05;5.400001;;;;;;;15.14;67.99707;95951.93;;;;
2022/06/17 05:24:59;;;;;;;6.05;5.400001;;;;;;;15.14;67.99707;95951.93;;;;
2022/06/17 05:26:01;;;;;;;6.05;5.400001;;;;;;;15.14;67.99707;95951.93;;;;
2022/06/17 05:27:02;;;;;;;6.05;5.400001;;;;;;;15.14;67.99707;95951.93;;;;
2022/06/17 05:28:03;;;;;;;6.05;5.400001;;;;;;;15.14;67.99707;95951.93;;;;
2022/06/17 05:29:07;;;;;;;6.05;5.400001;;;;;;;15.14;67.99707;95951.93;;;;
2022/06/17 05:30:08;;;;;;;6.300001;5.15;;;;;;;15.77;67.41699;95968.75;;;;
2022/06/17 05:31:09;;;;;;;6.300001;5.15;;;;;;;15.77;67.41699;95968.75;;;;
2022/06/17 05:32:13;;;;;;;6.300001;5.15;;;;;;;15.77;67.41699;95968.75;;;;
2022/06/17 05:33:18;;;;;;;6.300001;5.15;;;;;;;15.77;67.41699;95968.75;;;;
2022/06/17 05:34:20;;;;;;;6.300001;5.15;;;;;;;15.77;67.41699;95968.75;;;;
2022/06/17 05:35:21;;;;;;;6.300001;5.15;;;;;;;15.77;67.41699;95968.75;;;;
2022/06/17 05:36:22;;;;;;;6.300001;5.15;;;;;;;15.77;67.41699;95968.75;;;;
2022/06/17 05:37:23;;;;;;;6.300001;5.15;;;;;;;15.77;67.41699;95968.75;;;;
2022/06/17 05:38:23;;;;;;;6.300001;5.15;;;;;;;15.77;67.41699;95968.75;;;;
2022/06/17 05:39:24;;;;;;;6.300001;5.15;;;;;;;15.77;67.41699;95968.75;;;;
2022/06/17 05:40:26;;;;;;;6.300001;5.15;;;;;;;15.77;67.41699;95968.75;;;;
2022/06/17 05:41:27;;;;;;;7.5;5.5;;;;;;;16.63;66.4209;95978.52;;;;
2022/06/17 05:42:27;;;;;;;7.5;5.5;;;;;;;16.63;66.4209;95978.52;;;;
2022/06/17 05:43:27;;;;;;;7.5;5.5;;;;;;;16.63;66.4209;95978.52;;;;
2022/06/17 05:44:28;;;;;;;7.5;5.5;;;;;;;16.63;66.4209;95978.52;;;;
2022/06/17 05:45:28;;;;;;;7.5;5.5;;;;;;;16.63;66.4209;95978.52;;;;
2022/06/17 05:46:30;;;;;;;7.5;5.5;;;;;;;16.63;66.4209;95978.52;;;;
2022/06/17 05:47:31;;;;;;;7.5;5.5;;;;;;;16.63;66.4209;95978.52;;;;
2022/06/17 05:48:31;;;;;;;7.5;5.5;;;;;;;16.63;66.4209;95978.52;;;;
2022/06/17 05:49:32;;;;;;;7.5;5.5;;;;;;;16.63;66.4209;95978.52;;;;